createdAt,value
2018-12-10T00:02:17.298Z,6.29
2018-12-10T00:04:45.194Z,6.27
2018-12-10T00:07:13.121Z,6.27
2018-12-10T00:09:41.053Z,6.27
2018-12-10T00:12:08.951Z,6.28
2018-12-10T00:14:36.874Z,6.27
2018-12-10T00:17:04.774Z,6.25
2018-12-10T00:19:32.667Z,6.24
2018-12-10T00:22:00.991Z,6.23
2018-12-10T00:24:28.900Z,6.22
2018-12-10T00:26:56.815Z,6.19
2018-12-10T00:29:24.761Z,6.15
2018-12-10T00:31:52.664Z,6.16
2018-12-10T00:34:20.564Z,6.18
2018-12-10T00:36:48.691Z,6.21
2018-12-10T00:39:16.607Z,6.24
2018-12-10T00:41:44.518Z,6.24
2018-12-10T00:44:12.463Z,6.24
2018-12-10T00:46:40.362Z,6.25
2018-12-10T00:49:08.268Z,6.26
2018-12-10T00:51:36.201Z,6.26
2018-12-10T00:54:04.112Z,6.26
2018-12-10T00:56:32.010Z,6.26
2018-12-10T00:59:00.118Z,6.28
2018-12-10T01:01:28.144Z,6.29
2018-12-10T01:03:56.050Z,6.29
2018-12-10T01:06:23.979Z,6.29
2018-12-10T01:08:51.880Z,6.28
2018-12-10T01:11:19.895Z,6.24
2018-12-10T01:13:47.953Z,6.22
2018-12-10T01:16:15.851Z,6.16
2018-12-10T01:18:43.747Z,6.10
2018-12-10T01:21:11.680Z,6.00
2018-12-10T01:23:39.658Z,5.94
2018-12-10T01:26:07.647Z,5.83
2018-12-10T01:28:36.197Z,5.74
2018-12-10T01:31:04.540Z,5.71
2018-12-10T01:33:32.883Z,5.66
2018-12-10T01:36:00.824Z,5.66
2018-12-10T01:38:28.722Z,5.66
2018-12-10T01:40:56.635Z,5.67
2018-12-10T01:43:24.675Z,5.67
2018-12-10T01:45:52.578Z,5.70
2018-12-10T01:48:20.487Z,5.69
2018-12-10T01:50:48.421Z,5.66
2018-12-10T01:53:16.349Z,5.66
2018-12-10T01:55:44.251Z,5.66
2018-12-10T01:58:12.196Z,5.71
2018-12-10T02:00:40.101Z,5.73
2018-12-10T02:03:07.994Z,5.75
2018-12-10T02:05:36.095Z,5.76
2018-12-10T02:08:03.988Z,5.76
2018-12-10T02:10:31.925Z,5.77
2018-12-10T02:13:00.008Z,5.77
2018-12-10T02:15:27.923Z,5.77
2018-12-10T02:17:55.821Z,5.77
2018-12-10T02:20:23.755Z,5.74
2018-12-10T02:22:51.658Z,5.70
2018-12-10T02:25:19.570Z,5.62
2018-12-10T02:27:47.497Z,5.54
2018-12-10T02:30:15.412Z,5.49
2018-12-10T02:32:43.343Z,5.46
2018-12-10T02:35:11.247Z,5.43
2018-12-10T02:37:39.279Z,5.46
2018-12-10T02:40:07.228Z,5.50
2018-12-10T02:42:35.243Z,5.53
2018-12-10T02:45:03.287Z,5.55
2018-12-10T02:47:31.172Z,5.58
2018-12-10T02:49:59.065Z,5.58
2018-12-10T02:52:26.949Z,5.58
2018-12-10T02:54:54.860Z,5.59
2018-12-10T02:57:22.841Z,5.59
2018-12-10T02:59:50.737Z,5.60
2018-12-10T03:02:18.619Z,5.60
2018-12-10T03:04:46.520Z,5.59
2018-12-10T03:07:14.407Z,5.58
2018-12-10T03:09:42.307Z,5.58
2018-12-10T03:12:10.186Z,5.56
2018-12-10T03:14:38.111Z,5.55
2018-12-10T03:17:05.990Z,5.54
2018-12-10T03:19:33.902Z,5.56
2018-12-10T03:22:01.782Z,5.57
2018-12-10T03:24:29.691Z,5.57
2018-12-10T03:26:57.577Z,5.55
2018-12-10T03:29:25.466Z,5.54
2018-12-10T03:31:53.549Z,5.53
2018-12-10T03:34:21.538Z,5.54
2018-12-10T03:36:49.464Z,5.55
2018-12-10T03:39:17.411Z,5.57
2018-12-10T03:41:45.308Z,5.59
2018-12-10T03:44:13.666Z,5.60
2018-12-10T03:46:42.138Z,5.59
2018-12-10T03:49:10.108Z,5.58
2018-12-10T03:51:37.987Z,5.59
2018-12-10T03:54:05.894Z,5.60
2018-12-10T03:56:33.774Z,5.60
2018-12-10T03:59:01.935Z,5.61
2018-12-10T04:01:29.824Z,5.63
2018-12-10T04:03:57.715Z,5.64
2018-12-10T04:06:25.617Z,5.63
2018-12-10T04:08:53.486Z,5.61
2018-12-10T04:11:21.375Z,5.60
2018-12-10T04:13:49.323Z,5.60
2018-12-10T04:16:17.261Z,5.58
2018-12-10T04:18:45.130Z,5.58
2018-12-10T04:21:13.027Z,5.56
2018-12-10T04:23:40.908Z,5.57
2018-12-10T04:26:08.829Z,5.55
2018-12-10T04:28:36.776Z,5.55
2018-12-10T04:31:04.677Z,5.54
2018-12-10T04:33:32.635Z,5.54
2018-12-10T04:36:00.528Z,5.54
2018-12-10T04:38:28.410Z,5.52
2018-12-10T04:40:56.302Z,5.53
2018-12-10T04:43:24.179Z,5.56
2018-12-10T04:45:52.086Z,5.56
2018-12-10T04:48:19.963Z,5.59
2018-12-10T04:50:47.851Z,5.59
2018-12-10T04:53:15.727Z,5.61
2018-12-10T04:55:45.403Z,5.61
2018-12-10T04:58:13.279Z,5.60
2018-12-10T05:00:41.186Z,5.60
2018-12-10T05:03:09.085Z,5.60
2018-12-10T05:05:36.986Z,5.59
2018-12-10T05:08:05.542Z,5.60
2018-12-10T05:10:34.139Z,5.59
2018-12-10T05:13:02.018Z,5.59
2018-12-10T05:15:29.929Z,5.58
2018-12-10T05:17:57.812Z,5.57
2018-12-10T05:20:25.737Z,5.57
2018-12-10T05:22:53.611Z,5.55
2018-12-10T05:25:21.515Z,5.54
2018-12-10T05:27:49.525Z,5.55
2018-12-10T05:30:17.415Z,5.54
2018-12-10T05:32:45.308Z,5.55
2018-12-10T05:35:13.188Z,5.53
2018-12-10T05:37:41.177Z,5.51
2018-12-10T05:40:09.179Z,5.51
2018-12-10T05:42:37.075Z,5.52
2018-12-10T05:45:06.208Z,5.52
2018-12-10T05:47:34.102Z,5.51
2018-12-10T05:50:02.051Z,5.51
2018-12-10T05:52:29.955Z,5.51
2018-12-10T05:54:57.838Z,5.52
2018-12-10T05:57:25.738Z,5.52
2018-12-10T05:59:53.640Z,5.53
2018-12-10T06:02:21.629Z,5.53
2018-12-10T06:04:49.507Z,5.53
2018-12-10T06:07:17.439Z,5.52
2018-12-10T06:09:45.324Z,5.49
2018-12-10T06:12:13.223Z,5.48
2018-12-10T06:14:41.123Z,5.47
2018-12-10T06:17:09.079Z,5.46
2018-12-10T06:19:36.961Z,5.45
2018-12-10T06:22:04.864Z,5.44
2018-12-10T06:24:32.743Z,5.44
2018-12-10T06:27:00.647Z,5.43
2018-12-10T06:29:28.976Z,5.39
2018-12-10T06:31:56.887Z,5.30
2018-12-10T06:34:24.811Z,5.22
2018-12-10T06:36:52.795Z,5.18
2018-12-10T06:39:20.685Z,5.14
2018-12-10T06:41:48.637Z,5.11
2018-12-10T06:44:16.538Z,5.08
2018-12-10T06:46:44.431Z,5.00
2018-12-10T06:49:12.330Z,4.89
2018-12-10T06:51:40.223Z,4.83
2018-12-10T06:54:08.131Z,4.84
2018-12-10T06:56:36.007Z,4.83
2018-12-10T06:59:04.352Z,4.84
2018-12-10T07:01:32.905Z,4.85
2018-12-10T07:04:00.804Z,4.89
2018-12-10T07:06:28.687Z,4.90
2018-12-10T07:08:56.607Z,4.93
2018-12-10T07:11:24.551Z,4.95
2018-12-10T07:13:52.455Z,4.96
2018-12-10T07:16:20.359Z,4.93
2018-12-10T07:18:48.258Z,4.88
2018-12-10T07:21:16.243Z,4.84
2018-12-10T07:23:44.162Z,4.80
2018-12-10T07:26:12.088Z,4.81
2018-12-10T07:28:40.015Z,4.83
2018-12-10T07:31:07.915Z,4.82
2018-12-10T07:33:35.851Z,4.81
2018-12-10T07:36:03.742Z,4.79
2018-12-10T07:38:31.658Z,4.78
2018-12-10T07:40:59.564Z,4.82
2018-12-10T07:43:27.473Z,4.86
2018-12-10T07:45:55.351Z,4.91
2018-12-10T07:48:23.246Z,4.95
2018-12-10T07:50:51.124Z,4.98
2018-12-10T07:53:19.049Z,5.01
2018-12-10T07:55:46.937Z,5.02
2018-12-10T07:58:14.855Z,5.06
2018-12-10T08:00:42.748Z,5.09
2018-12-10T08:03:10.641Z,5.12
2018-12-10T08:05:38.562Z,5.15
2018-12-10T08:08:06.438Z,5.18
2018-12-10T08:10:34.351Z,5.23
2018-12-10T08:13:02.688Z,5.26
2018-12-10T08:15:30.614Z,5.34
2018-12-10T08:17:58.510Z,5.41
2018-12-10T08:20:26.414Z,5.47
2018-12-10T08:22:54.291Z,5.49
2018-12-10T08:25:23.252Z,5.51
2018-12-10T08:27:51.511Z,5.53
2018-12-10T08:30:19.430Z,5.52
2018-12-10T08:32:47.315Z,5.55
2018-12-10T08:35:15.218Z,5.71
2018-12-10T08:37:43.511Z,5.79
2018-12-10T08:40:11.501Z,5.91
2018-12-10T08:42:39.382Z,6.08
2018-12-10T08:45:07.368Z,6.06
2018-12-10T08:47:35.700Z,6.07
2018-12-10T08:50:04.755Z,6.08
2018-12-10T08:52:32.655Z,6.16
2018-12-10T08:55:00.559Z,6.38
2018-12-10T08:57:28.535Z,6.54
2018-12-10T08:59:56.795Z,6.71
2018-12-10T09:02:24.694Z,7.01
2018-12-10T09:04:52.576Z,7.35
2018-12-10T09:07:20.471Z,7.50
2018-12-10T09:09:48.366Z,7.52
2018-12-10T09:12:16.272Z,7.78
2018-12-10T09:14:44.159Z,8.11
2018-12-10T09:17:12.055Z,8.39
2018-12-10T09:19:40.045Z,8.40
2018-12-10T09:22:07.951Z,8.36
2018-12-10T09:24:35.897Z,8.53
2018-12-10T09:27:03.847Z,8.79
2018-12-10T09:29:31.885Z,9.02
2018-12-10T09:32:01.415Z,9.24
2018-12-10T09:34:29.298Z,9.41
2018-12-10T09:36:57.207Z,9.83
2018-12-10T09:39:25.097Z,10.03
2018-12-10T09:41:52.999Z,9.59
2018-12-10T09:44:20.913Z,8.95
2018-12-10T09:46:48.893Z,8.32
2018-12-10T09:49:17.083Z,7.88
2018-12-10T09:51:44.972Z,7.95
2018-12-10T09:54:12.852Z,7.77
2018-12-10T09:56:40.762Z,7.43
2018-12-10T09:59:08.643Z,7.10
2018-12-10T10:01:36.717Z,6.92
2018-12-10T10:04:06.211Z,6.77
2018-12-10T10:06:34.108Z,6.68
2018-12-10T10:09:02.098Z,6.62
2018-12-10T10:11:29.980Z,6.60
2018-12-10T10:13:57.911Z,6.63
2018-12-10T10:16:25.807Z,6.54
2018-12-10T10:18:53.712Z,6.52
2018-12-10T10:21:21.618Z,6.52
2018-12-10T10:23:49.522Z,6.46
2018-12-10T10:26:18.030Z,6.58
2018-12-10T10:28:45.964Z,6.74
2018-12-10T10:31:13.872Z,6.89
2018-12-10T10:33:41.775Z,6.95
2018-12-10T10:36:09.662Z,6.94
2018-12-10T10:38:37.611Z,6.87
2018-12-10T10:41:05.494Z,6.86
2018-12-10T10:43:33.375Z,6.87
2018-12-10T10:46:01.387Z,6.91
2018-12-10T10:48:29.272Z,6.83
2018-12-10T10:50:57.162Z,6.73
2018-12-10T10:53:25.063Z,6.69
2018-12-10T10:55:52.948Z,6.67
2018-12-10T10:58:22.442Z,6.65
2018-12-10T11:00:56.080Z,6.60
2018-12-10T11:03:29.597Z,6.53
2018-12-10T11:05:57.631Z,6.46
2018-12-10T11:08:25.531Z,6.40
2018-12-10T11:10:53.425Z,6.31
2018-12-10T11:13:21.556Z,6.25
2018-12-10T11:15:49.535Z,6.21
2018-12-10T11:18:17.491Z,6.20
2018-12-10T11:20:45.992Z,6.20
2018-12-10T11:23:13.872Z,6.20
2018-12-10T11:25:41.776Z,6.20
2018-12-10T11:28:09.666Z,6.22
2018-12-10T11:30:37.563Z,6.26
2018-12-10T11:33:05.900Z,6.27
2018-12-10T11:35:33.812Z,6.26
2018-12-10T11:38:01.703Z,6.21
2018-12-10T11:40:29.641Z,6.13
2018-12-10T11:42:57.527Z,6.05
2018-12-10T11:45:25.498Z,6.01
2018-12-10T11:47:53.835Z,5.99
2018-12-10T11:50:21.794Z,6.01
2018-12-10T11:52:49.828Z,6.05
2018-12-10T11:55:17.732Z,6.09
2018-12-10T11:57:45.625Z,6.10
2018-12-10T12:00:13.833Z,6.10
2018-12-10T12:02:41.719Z,6.11
2018-12-10T12:05:09.611Z,6.12
2018-12-10T12:07:37.512Z,6.13
2018-12-10T12:10:06.260Z,6.15
2018-12-10T12:12:34.473Z,6.14
2018-12-10T12:15:02.353Z,6.11
2018-12-10T12:17:30.256Z,6.08
2018-12-10T12:19:58.158Z,6.05
2018-12-10T12:22:27.236Z,6.04
2018-12-10T12:24:55.126Z,6.03
2018-12-10T12:27:23.951Z,6.00
2018-12-10T12:29:51.917Z,6.03
2018-12-10T12:32:19.815Z,6.06
2018-12-10T12:34:47.699Z,6.08
2018-12-10T12:37:15.620Z,6.08
2018-12-10T12:39:43.532Z,6.04
2018-12-10T12:42:11.442Z,5.99
2018-12-10T12:44:39.350Z,5.98
2018-12-10T12:47:07.260Z,5.93
2018-12-10T12:49:35.180Z,5.90
2018-12-10T12:52:03.295Z,5.85
2018-12-10T12:54:31.219Z,5.79
2018-12-10T12:56:59.112Z,5.77
2018-12-10T12:59:27.010Z,5.75
2018-12-10T13:01:55.067Z,5.66
2018-12-10T13:04:23.382Z,5.59
2018-12-10T13:06:51.307Z,5.52
2018-12-10T13:09:21.868Z,5.50
2018-12-10T13:11:49.106Z,5.50
2018-12-10T13:14:17.061Z,5.50
2018-12-10T13:16:49.356Z,5.52
2018-12-10T13:19:14.930Z,5.53
2018-12-10T13:21:42.835Z,5.56
2018-12-10T13:24:10.715Z,5.58
2018-12-10T13:26:38.605Z,5.60
2018-12-10T13:29:06.781Z,5.57
2018-12-10T13:31:35.164Z,5.50
2018-12-10T13:34:03.048Z,5.37
2018-12-10T13:36:30.959Z,5.23
2018-12-10T13:38:58.832Z,5.12
2018-12-10T13:41:26.740Z,5.05
2018-12-10T13:43:54.669Z,5.05
2018-12-10T13:46:22.572Z,5.13
2018-12-10T13:48:50.548Z,5.22
2018-12-10T13:51:18.654Z,5.27
2018-12-10T13:53:46.655Z,5.28
2018-12-10T13:56:14.533Z,5.34
2018-12-10T13:58:42.432Z,5.38
2018-12-10T14:01:10.327Z,5.42
2018-12-10T14:03:38.216Z,5.38
2018-12-10T14:06:06.127Z,5.31
2018-12-10T14:08:34.043Z,5.30
2018-12-10T14:11:01.945Z,5.31
2018-12-10T14:13:29.839Z,5.38
2018-12-10T14:15:57.728Z,5.42
2018-12-10T14:18:25.636Z,5.44
2018-12-10T14:20:53.519Z,5.47
2018-12-10T14:23:21.436Z,5.47
2018-12-10T14:25:49.325Z,5.48
2018-12-10T14:28:17.236Z,5.48
2018-12-10T14:30:45.196Z,5.46
2018-12-10T14:33:13.098Z,5.45
2018-12-10T14:35:40.989Z,5.43
2018-12-10T14:38:08.899Z,5.43
2018-12-10T14:40:36.794Z,5.42
2018-12-10T14:43:04.673Z,5.41
2018-12-10T14:45:32.596Z,5.41
2018-12-10T14:48:00.569Z,5.41
2018-12-10T14:50:28.489Z,5.42
2018-12-10T14:52:56.363Z,5.41
2018-12-10T14:55:24.426Z,5.40
2018-12-10T14:57:52.766Z,5.38
2018-12-10T15:00:20.654Z,5.38
2018-12-10T15:02:48.659Z,5.35
2018-12-10T15:05:16.560Z,5.34
2018-12-10T15:07:44.447Z,5.29
2018-12-10T15:10:12.381Z,5.25
2018-12-10T15:12:40.257Z,5.23
2018-12-10T15:15:08.753Z,5.23
2018-12-10T15:17:36.655Z,5.21
2018-12-10T15:20:07.090Z,5.18
2018-12-10T15:22:34.990Z,5.18
2018-12-10T15:25:03.232Z,5.15
2018-12-10T15:27:31.110Z,5.13
2018-12-10T15:29:59.016Z,5.10
2018-12-10T15:32:26.921Z,5.08
2018-12-10T15:34:54.827Z,5.07
2018-12-10T15:37:23.155Z,5.08
2018-12-10T15:39:51.056Z,5.07
2018-12-10T15:42:18.930Z,5.06
2018-12-10T15:44:46.848Z,5.05
2018-12-10T15:47:14.725Z,5.04
2018-12-10T15:49:42.623Z,5.05
2018-12-10T15:52:10.512Z,5.02
2018-12-10T15:54:38.439Z,4.96
2018-12-10T15:57:06.331Z,4.89
2018-12-10T15:59:34.213Z,4.78
2018-12-10T16:02:02.115Z,4.65
2018-12-10T16:04:31.993Z,4.54
2018-12-10T16:06:59.901Z,4.53
2018-12-10T16:09:27.803Z,4.55
2018-12-10T16:11:55.715Z,4.63
2018-12-10T16:14:23.606Z,4.68
2018-12-10T16:16:51.529Z,4.76
2018-12-10T16:19:19.432Z,4.80
2018-12-10T16:21:47.357Z,4.83
2018-12-10T16:24:15.242Z,4.87
2018-12-10T16:26:43.252Z,4.87
2018-12-10T16:29:11.134Z,4.89
2018-12-10T16:31:39.047Z,4.89
2018-12-10T16:34:06.927Z,4.84
2018-12-10T16:36:34.841Z,4.79
2018-12-10T16:39:04.000Z,4.73
2018-12-10T16:41:32.015Z,4.69
2018-12-10T16:43:59.910Z,4.66
2018-12-10T16:46:27.783Z,4.64
2018-12-10T16:48:55.716Z,4.63
2018-12-10T16:51:23.597Z,4.62
2018-12-10T16:53:51.500Z,4.60
2018-12-10T16:56:19.399Z,4.61
2018-12-10T16:58:47.287Z,4.58
2018-12-10T17:01:15.168Z,4.57
2018-12-10T17:03:43.517Z,4.53
2018-12-10T17:06:11.407Z,4.48
2018-12-10T17:08:39.289Z,4.43
2018-12-10T17:11:07.210Z,4.39
2018-12-10T17:13:35.091Z,4.36
2018-12-10T17:16:03.017Z,4.36
2018-12-10T17:18:30.895Z,4.35
2018-12-10T17:20:58.807Z,4.33
2018-12-10T17:23:26.820Z,4.32
2018-12-10T17:25:54.695Z,4.32
2018-12-10T17:28:22.595Z,4.31
2018-12-10T17:30:50.487Z,4.26
2018-12-10T17:33:18.467Z,4.23
2018-12-10T17:35:46.347Z,4.23
2018-12-10T17:38:14.247Z,4.24
2018-12-10T17:40:42.130Z,4.27
2018-12-10T17:43:10.031Z,4.32
2018-12-10T17:45:37.923Z,4.34
2018-12-10T17:48:05.890Z,4.34
2018-12-10T17:50:33.779Z,4.33
2018-12-10T17:53:01.679Z,4.32
2018-12-10T17:55:29.564Z,4.30
2018-12-10T17:57:57.442Z,4.28
2018-12-10T18:00:25.347Z,4.26
2018-12-10T18:02:53.240Z,4.26
2018-12-10T18:05:21.114Z,4.27
2018-12-10T18:07:49.180Z,4.26
2018-12-10T18:10:17.500Z,4.26
2018-12-10T18:12:45.380Z,4.24
2018-12-10T18:15:13.350Z,4.25
2018-12-10T18:17:41.679Z,4.26
2018-12-10T18:20:09.943Z,4.26
2018-12-10T18:22:38.143Z,4.25
2018-12-10T18:25:06.607Z,4.23
2018-12-10T18:27:34.483Z,4.22
2018-12-10T18:30:02.388Z,4.23
2018-12-10T18:32:30.289Z,4.22
2018-12-10T18:34:58.179Z,4.20
2018-12-10T18:37:26.076Z,4.19
2018-12-10T18:39:53.955Z,4.16
2018-12-10T18:42:21.849Z,4.15
2018-12-10T18:44:49.761Z,4.17
2018-12-10T18:47:17.637Z,4.20
2018-12-10T18:49:45.546Z,4.22
2018-12-10T18:52:13.438Z,4.22
2018-12-10T18:54:41.339Z,4.23
2018-12-10T18:57:09.219Z,4.25
2018-12-10T18:59:37.135Z,4.26
2018-12-10T19:02:05.306Z,4.28
2018-12-10T19:04:33.242Z,4.29
2018-12-10T19:07:01.135Z,4.31
2018-12-10T19:09:29.033Z,4.31
2018-12-10T19:11:56.923Z,4.30
2018-12-10T19:14:25.285Z,4.27
2018-12-10T19:16:53.163Z,4.27
2018-12-10T19:19:21.094Z,4.26
2018-12-10T19:21:48.977Z,4.27
2018-12-10T19:24:16.882Z,4.27
2018-12-10T19:26:44.770Z,4.29
2018-12-10T19:29:12.685Z,4.29
2018-12-10T19:31:40.558Z,4.28
2018-12-10T19:34:08.481Z,4.28
2018-12-10T19:36:36.361Z,4.26
2018-12-10T19:39:06.768Z,4.27
2018-12-10T19:41:34.653Z,4.26
2018-12-10T19:44:02.632Z,4.26
2018-12-10T19:46:30.520Z,4.27
2018-12-10T19:48:58.520Z,4.30
2018-12-10T19:51:26.403Z,4.32
2018-12-10T19:53:54.313Z,4.33
2018-12-10T19:56:22.225Z,4.35
2018-12-10T19:58:50.402Z,4.36
2018-12-10T20:01:18.297Z,4.38
2018-12-10T20:03:46.284Z,4.37
2018-12-10T20:06:16.238Z,4.35
2018-12-10T20:08:44.570Z,4.30
2018-12-10T20:11:12.529Z,4.27
2018-12-10T20:13:40.479Z,4.22
2018-12-10T20:16:08.428Z,4.19
2018-12-10T20:18:36.314Z,4.19
2018-12-10T20:21:04.227Z,4.21
2018-12-10T20:23:32.106Z,4.19
2018-12-10T20:26:00.453Z,4.21
2018-12-10T20:28:28.461Z,4.23
2018-12-10T20:30:56.463Z,4.24
2018-12-10T20:33:24.348Z,4.25
2018-12-10T20:35:52.277Z,4.28
2018-12-10T20:38:20.250Z,4.31
2018-12-10T20:40:48.162Z,4.34
2018-12-10T20:43:16.051Z,4.37
2018-12-10T20:45:44.019Z,4.40
2018-12-10T20:48:11.932Z,4.45
2018-12-10T20:50:39.842Z,4.46
2018-12-10T20:53:07.724Z,4.48
2018-12-10T20:55:35.728Z,4.50
2018-12-10T20:58:03.611Z,4.52
2018-12-10T21:00:31.519Z,4.51
2018-12-10T21:02:59.424Z,4.53
2018-12-10T21:05:27.330Z,4.53
2018-12-10T21:07:55.223Z,4.53
2018-12-10T21:10:23.127Z,4.55
2018-12-10T21:12:51.012Z,4.55
2018-12-10T21:15:18.907Z,4.54
2018-12-10T21:17:46.811Z,4.55
2018-12-10T21:20:15.146Z,4.54
2018-12-10T21:22:43.038Z,4.53
2018-12-10T21:25:11.062Z,4.51
2018-12-10T21:27:39.055Z,4.49
2018-12-10T21:30:07.980Z,4.48
2018-12-10T21:32:36.084Z,4.49
2018-12-10T21:35:04.434Z,4.48
2018-12-10T21:37:32.312Z,4.47
2018-12-10T21:40:00.404Z,4.48
2018-12-10T21:42:28.291Z,4.50
2018-12-10T21:44:56.171Z,4.51
2018-12-10T21:47:24.196Z,4.52
2018-12-10T21:49:52.098Z,4.49
2018-12-10T21:52:19.974Z,4.44
2018-12-10T21:54:47.876Z,4.39
2018-12-10T21:57:15.769Z,4.33
2018-12-10T21:59:43.735Z,4.25
2018-12-10T22:02:11.804Z,4.20
2018-12-10T22:04:39.692Z,4.14
2018-12-10T22:07:07.621Z,4.13
2018-12-10T22:09:35.663Z,4.14
2018-12-10T22:12:03.640Z,4.15
2018-12-10T22:14:31.593Z,4.14
2018-12-10T22:16:59.645Z,4.12
2018-12-10T22:19:27.548Z,4.09
2018-12-10T22:21:55.444Z,4.07
2018-12-10T22:24:23.466Z,4.06
2018-12-10T22:26:51.376Z,4.10
2018-12-10T22:29:19.288Z,4.18
2018-12-10T22:31:47.212Z,4.23
2018-12-10T22:34:15.128Z,4.28
2018-12-10T22:36:43.051Z,4.32
2018-12-10T22:39:11.168Z,4.38
2018-12-10T22:41:39.059Z,4.44
2018-12-10T22:44:07.056Z,4.48
2018-12-10T22:46:35.168Z,4.51
2018-12-10T22:49:03.072Z,4.53
2018-12-10T22:51:30.975Z,4.54
2018-12-10T22:53:58.904Z,4.56
2018-12-10T22:56:26.851Z,4.57
2018-12-10T22:58:54.796Z,4.57
2018-12-10T23:01:22.991Z,4.56
2018-12-10T23:03:50.871Z,4.55
2018-12-10T23:06:18.864Z,4.54
2018-12-10T23:08:46.805Z,4.54
2018-12-10T23:11:14.683Z,4.57
2018-12-10T23:13:42.596Z,4.58
2018-12-10T23:16:10.594Z,4.60
2018-12-10T23:18:38.488Z,4.61
2018-12-10T23:21:06.403Z,4.61
2018-12-10T23:23:34.331Z,4.61
2018-12-10T23:26:02.239Z,4.64
2018-12-10T23:28:30.139Z,4.63
2018-12-10T23:30:58.107Z,4.63
2018-12-10T23:33:26.010Z,4.63
2018-12-10T23:35:53.892Z,4.63
2018-12-10T23:38:21.911Z,4.65
2018-12-10T23:40:49.873Z,4.67
2018-12-10T23:43:23.416Z,4.69
2018-12-10T23:45:51.311Z,4.67
2018-12-10T23:48:19.253Z,4.68
2018-12-10T23:50:47.383Z,4.70
2018-12-10T23:53:15.340Z,4.70
2018-12-10T23:55:43.214Z,4.72
2018-12-10T23:58:11.119Z,4.76
